Time;durP1;ratioP1;P1;durP2;ratioP2;P2;SDS_P1;SDS_P2;PMS_P1;PMS_P2;Temp;Humidity;BMP_temperature;BMP_pressure;BME280_temperature;BME280_humidity;BME280_pressure;Samples;Min_cycle;Max_cycle;Signal;HPM_P1;HPM_P2
2021/09/07 00:00:44;;;;;;;2.97;2.10;;;;;;;17.02;63.08;99578.13;5111677;28;42320;-83
2021/09/07 00:03:13;;;;;;;2.13;1.93;;;;;;;16.88;63.13;99566.66;5112045;28;40564;-83
2021/09/07 00:05:41;;;;;;;2.60;1.83;;;;;;;16.87;63.33;99564.94;5111835;28;41779;-84
2021/09/07 00:08:08;;;;;;;1.83;1.50;;;;;;;16.93;63.28;99581.50;5094399;28;42021;-85
2021/09/07 00:10:36;;;;;;;2.40;2.17;;;;;;;16.86;63.34;99579.28;5111791;28;42323;-84
2021/09/07 00:13:04;;;;;;;2.53;1.90;;;;;;;16.76;63.27;99562.25;5094513;28;40202;-85
2021/09/07 00:15:36;;;;;;;3.03;1.60;;;;;;;16.81;63.67;99578.78;5095410;28;40571;-84
2021/09/07 00:18:04;;;;;;;3.40;1.80;;;;;;;16.72;63.48;99568.78;5094877;28;41871;-84
2021/09/07 00:20:33;;;;;;;1.67;1.50;;;;;;;16.76;63.42;99582.78;5111610;28;42271;-83
2021/09/07 00:23:01;;;;;;;2.77;1.97;;;;;;;16.65;63.55;99567.56;5111609;28;38912;-84
2021/09/07 00:25:29;;;;;;;2.60;1.60;;;;;;;16.71;63.92;99576.94;5094041;28;40713;-84
2021/09/07 00:27:56;;;;;;;2.33;1.80;;;;;;;16.70;63.51;99578.75;5112818;28;43345;-82
2021/09/07 00:30:24;;;;;;;3.40;2.03;;;;;;;16.57;63.52;99561.91;5093814;28;41589;-84
2021/09/07 00:32:51;;;;;;;2.63;1.70;;;;;;;16.62;63.80;99575.81;5109546;27;40153;-85
2021/09/07 00:35:19;;;;;;;2.17;1.70;;;;;;;16.61;63.53;99579.44;5110943;28;40996;-84
2021/09/07 00:37:48;;;;;;;2.70;1.80;;;;;;;16.57;63.95;99572.59;5093881;28;41834;-84
2021/09/07 00:40:15;;;;;;;2.13;1.90;;;;;;;16.52;63.67;99569.44;5127437;27;42491;-84
2021/09/07 00:42:43;;;;;;;2.73;2.17;;;;;;;16.46;63.70;99554.69;5112414;28;39653;-84
2021/09/07 00:45:12;;;;;;;1.90;1.70;;;;;;;16.21;63.76;99513.88;5094056;28;40649;-83
2021/09/07 00:47:40;;;;;;;2.03;1.70;;;;;;;16.49;64.05;99558.97;5110303;28;42087;-85
2021/09/07 00:50:09;;;;;;;2.80;1.80;;;;;;;16.48;64.04;99557.25;5100157;27;41475;-84
2021/09/07 00:52:38;;;;;;;4.10;2.00;;;;;;;16.39;63.84;99552.59;5131539;27;41107;-83
2021/09/07 00:55:10;;;;;;;3.07;2.30;;;;;;;16.46;63.90;99567.22;5096966;27;40611;-83
2021/09/07 00:57:38;;;;;;;2.23;1.50;;;;;;;16.39;64.18;99563.31;5115325;27;43279;-83
2021/09/07 01:00:07;;;;;;;3.40;1.90;;;;;;;16.33;64.18;99553.06;5131410;27;42543;-83
2021/09/07 01:02:36;;;;;;;2.97;1.90;;;;;;;16.32;64.06;99562.06;5131026;27;39892;-84
2021/09/07 01:05:05;;;;;;;3.33;1.90;;;;;;;16.38;64.18;99583.84;5130614;27;41930;-83
2021/09/07 01:07:34;;;;;;;2.33;1.50;;;;;;;16.28;64.33;99563.25;5114818;27;41828;-83
2021/09/07 01:10:06;;;;;;;2.47;1.73;;;;;;;16.36;64.34;99580.41;5113326;27;41701;-84
2021/09/07 01:12:37;;;;;;;1.93;1.70;;;;;;;16.33;64.26;99574.44;5113713;27;38898;-84
2021/09/07 01:15:07;;;;;;;2.53;1.90;;;;;;;16.19;64.29;99561.28;5113247;27;40677;-83
2021/09/07 01:17:36;;;;;;;2.73;1.70;;;;;;;16.31;64.24;99581.75;5114540;27;41981;-83
2021/09/07 01:20:05;;;;;;;2.00;1.50;;;;;;;16.23;64.26;99562.72;5131262;27;42681;-83
2021/09/07 01:22:32;;;;;;;2.13;1.37;;;;;;;16.15;64.20;99561.50;5114411;27;40321;-83
2021/09/07 01:25:01;;;;;;;1.90;1.43;;;;;;;16.18;64.40;99568.44;5114118;27;40893;-83
2021/09/07 01:27:29;;;;;;;2.30;1.53;;;;;;;16.17;64.09;99572.94;5112848;27;42185;-84
2021/09/07 01:29:56;;;;;;;2.70;1.87;;;;;;;16.17;64.37;99580.94;5114271;27;41437;-84
2021/09/07 01:32:27;;;;;;;2.30;1.57;;;;;;;15.95;64.17;99538.03;5131438;27;40134;-84
2021/09/07 01:34:55;;;;;;;2.07;1.50;;;;;;;16.07;64.63;99565.72;5112611;27;41068;-84
2021/09/07 01:37:23;;;;;;;3.23;2.13;;;;;;;16.12;64.78;99579.56;5113516;27;41851;-84
2021/09/07 01:39:50;;;;;;;2.37;1.90;;;;;;;16.08;64.49;99578.06;5113172;27;42181;-83
2021/09/07 01:42:22;;;;;;;2.87;1.87;;;;;;;16.08;64.73;99581.59;5130492;27;39829;-83
2021/09/07 01:44:49;;;;;;;2.67;1.73;;;;;;;16.06;64.69;99583.56;5112184;27;41090;-83
2021/09/07 01:47:17;;;;;;;2.57;1.70;;;;;;;15.99;64.89;99582.28;5113636;27;41733;-83
2021/09/07 01:49:44;;;;;;;2.23;1.70;;;;;;;16.00;64.64;99577.81;5112859;27;41359;-84
2021/09/07 01:52:14;;;;;;;1.97;1.77;;;;;;;15.97;64.70;99588.69;5129272;27;39958;-84
2021/09/07 01:54:43;;;;;;;1.93;1.73;;;;;;;15.92;64.76;99578.38;5130569;27;41845;-85
2021/09/07 01:57:13;;;;;;;2.40;1.50;;;;;;;15.91;64.98;99584.69;5113742;27;41831;-83
2021/09/07 01:59:42;;;;;;;2.73;1.90;;;;;;;15.82;65.05;99572.81;5113408;27;41181;-83
2021/09/07 02:02:10;;;;;;;3.13;2.10;;;;;;;15.79;64.90;99570.41;5130578;27;40111;-83
2021/09/07 02:04:38;;;;;;;1.80;1.70;;;;;;;15.76;64.80;99562.59;5113004;27;40707;-83
2021/09/07 02:07:07;;;;;;;2.63;1.80;;;;;;;15.82;64.84;99580.00;5111991;27;43216;-84
2021/09/07 02:09:34;;;;;;;2.77;1.77;;;;;;;15.71;65.33;99566.56;5113423;27;41370;-85
2021/09/07 02:12:02;;;;;;;2.03;1.57;;;;;;;15.75;65.68;99579.59;5131131;27;41025;-84
2021/09/07 02:14:31;;;;;;;4.30;2.20;;;;;;;15.65;65.79;99567.00;5129932;27;42540;-85
2021/09/07 02:17:01;;;;;;;4.67;1.77;;;;;;;15.62;66.30;99560.06;5113889;27;43153;-84
2021/09/07 02:19:28;;;;;;;3.00;1.97;;;;;;;15.57;66.10;99553.38;5113037;27;42108;-83
2021/09/07 02:21:56;;;;;;;2.27;1.70;;;;;;;15.57;66.03;99556.03;5112890;27;39995;-83
2021/09/07 02:24:24;;;;;;;2.10;1.70;;;;;;;15.61;65.83;99560.16;5130249;27;41822;-83
2021/09/07 02:26:51;;;;;;;2.80;1.70;;;;;;;15.58;65.71;99555.06;5113538;27;41426;-83
2021/09/07 02:29:22;;;;;;;1.90;1.63;;;;;;;15.50;66.04;99547.56;5131355;27;42035;-83
2021/09/07 02:31:52;;;;;;;2.87;1.77;;;;;;;15.49;66.00;99547.66;5129896;27;41855;-83
2021/09/07 02:34:23;;;;;;;2.47;1.57;;;;;;;15.48;65.92;99543.28;5111997;27;41949;-83
2021/09/07 02:36:51;;;;;;;2.53;1.63;;;;;;;15.48;65.78;99540.63;5112665;27;41759;-83
2021/09/07 02:39:18;;;;;;;3.23;1.90;;;;;;;15.49;65.80;99539.66;5129500;27;42547;-83
2021/09/07 02:41:46;;;;;;;3.17;2.10;;;;;;;15.55;66.11;99539.28;5131003;27;40162;-83
2021/09/07 02:44:16;;;;;;;2.63;1.77;;;;;;;15.56;66.07;99535.63;5128594;27;41002;-83
2021/09/07 02:46:43;;;;;;;2.80;1.77;;;;;;;15.45;66.40;99515.03;5112921;27;42785;-84
2021/09/07 02:49:13;;;;;;;2.27;1.60;;;;;;;15.50;66.22;99520.88;5112427;27;42507;-83
2021/09/07 02:51:43;;;;;;;2.83;1.70;;;;;;;15.52;66.17;99521.63;5130129;27;40718;-83
2021/09/07 02:54:12;;;;;;;2.20;1.30;;;;;;;15.62;65.84;99535.19;5130314;27;42150;-84
2021/09/07 02:56:40;;;;;;;1.93;1.67;;;;;;;15.54;65.89;99521.50;5129425;27;41915;-83
2021/09/07 02:59:09;;;;;;;1.93;1.57;;;;;;;15.56;66.14;99524.97;5129324;27;43220;-84
2021/09/07 03:01:38;;;;;;;1.73;1.40;;;;;;;15.44;66.22;99506.16;5112611;27;39242;-84
2021/09/07 03:04:06;;;;;;;2.73;2.03;;;;;;;15.53;65.99;99519.81;5111898;27;40774;-84
2021/09/07 03:06:34;;;;;;;2.27;1.63;;;;;;;15.59;66.04;99530.91;5112192;27;41919;-83
2021/09/07 03:09:04;;;;;;;1.70;1.27;;;;;;;15.63;66.25;99536.88;5129891;27;43078;-82
2021/09/07 03:11:32;;;;;;;2.20;1.70;;;;;;;15.61;66.33;99536.13;5130477;27;39385;-83
2021/09/07 03:14:00;;;;;;;2.63;1.93;;;;;;;15.65;66.29;99537.63;5112607;27;41615;-83
2021/09/07 03:16:33;;;;;;;1.83;1.53;;;;;;;15.63;65.99;99536.88;5112187;27;42202;-83
2021/09/07 03:19:02;;;;;;;2.43;1.60;;;;;;;15.57;65.97;99521.34;5112572;27;42627;-83
2021/09/07 03:21:31;;;;;;;2.70;1.60;;;;;;;15.63;65.99;99526.22;5129308;27;40750;-83
2021/09/07 03:23:59;;;;;;;1.57;1.30;;;;;;;15.57;65.82;99518.66;5112665;27;40459;-83
2021/09/07 03:26:30;;;;;;;2.57;1.60;;;;;;;15.65;66.00;99534.97;5129628;27;43601;-82
2021/09/07 03:28:58;;;;;;;1.53;1.43;;;;;;;15.48;66.17;99512.13;5112150;27;41309;-83
2021/09/07 03:31:27;;;;;;;1.53;1.20;;;;;;;15.63;66.00;99536.88;5129341;27;39213;-84
2021/09/07 03:33:55;;;;;;;1.83;1.47;;;;;;;15.56;66.02;99531.16;5128571;27;41019;-84
2021/09/07 03:36:23;;;;;;;1.93;1.57;;;;;;;15.27;65.96;99484.31;5129327;27;43483;-84
2021/09/07 03:38:50;;;;;;;1.60;1.50;;;;;;;15.58;66.28;99529.19;5128153;27;41255;-84
2021/09/07 03:41:18;;;;;;;2.30;1.90;;;;;;;15.57;66.23;99532.00;5094621;27;39214;-83
2021/09/07 03:43:47;;;;;;;2.47;1.63;;;;;;;15.49;66.44;99519.16;5111545;27;42048;-83
2021/09/07 03:46:16;;;;;;;5.03;1.50;;;;;;;15.54;66.20;99527.69;5129102;27;43053;-83
2021/09/07 03:48:45;;;;;;;2.63;1.80;;;;;;;15.56;66.32;99530.31;5111737;27;41048;-83
2021/09/07 03:51:12;;;;;;;2.33;1.50;;;;;;;15.48;66.29;99522.78;5111956;27;38720;-84
2021/09/07 03:53:42;;;;;;;4.13;3.03;;;;;;;15.50;66.44;99522.69;5108183;28;40961;-84
2021/09/07 03:56:11;;;;;;;2.93;1.90;;;;;;;15.46;66.52;99520.22;5108498;28;42930;-83
2021/09/07 03:58:39;;;;;;;2.13;1.87;;;;;;;15.54;66.53;99534.84;5108129;28;41361;-83
2021/09/07 04:01:09;;;;;;;1.53;1.40;;;;;;;15.54;66.21;99537.53;5107407;28;38886;-83
2021/09/07 04:03:37;;;;;;;2.43;1.70;;;;;;;15.48;66.41;99522.78;5108315;28;42037;-83
2021/09/07 04:06:05;;;;;;;1.70;1.60;;;;;;;15.54;66.48;99537.53;5114318;27;42073;-83
2021/09/07 04:08:32;;;;;;;2.20;1.50;;;;;;;15.53;66.43;99541.16;5113339;27;41270;-83
2021/09/07 04:11:00;;;;;;;2.93;1.80;;;;;;;15.49;66.23;99537.00;5115043;27;40155;-84
2021/09/07 04:13:29;;;;;;;1.83;1.70;;;;;;;15.53;66.35;99538.50;5131720;27;41763;-84
2021/09/07 04:15:56;;;;;;;1.90;1.50;;;;;;;15.53;66.43;99538.50;5132528;27;43213;-83
2021/09/07 04:18:26;;;;;;;2.57;1.43;;;;;;;15.48;66.43;99532.63;5114541;27;41530;-84
2021/09/07 04:20:54;;;;;;;2.53;2.17;;;;;;;15.45;66.34;99529.19;5115637;27;39060;-83
2021/09/07 04:23:22;;;;;;;2.07;1.47;;;;;;;15.45;66.37;99529.19;5132930;27;41667;-83
2021/09/07 04:25:49;;;;;;;2.43;1.63;;;;;;;15.42;66.43;99524.09;5115438;27;43041;-83
2021/09/07 04:28:17;;;;;;;2.17;1.60;;;;;;;15.46;66.68;99530.91;5114433;27;41900;-84
2021/09/07 04:30:44;;;;;;;2.47;1.70;;;;;;;15.45;66.55;99534.53;5131810;27;40054;-83
2021/09/07 04:33:13;;;;;;;1.87;1.57;;;;;;;15.57;66.44;99548.03;5115062;27;40703;-84
2021/09/07 04:35:42;;;;;;;2.40;1.30;;;;;;;15.54;66.36;99542.88;5131956;27;43569;-83
2021/09/07 04:38:09;;;;;;;2.47;1.77;;;;;;;15.62;66.59;99548.53;5114750;27;41555;-83
2021/09/07 04:40:38;;;;;;;2.10;1.67;;;;;;;15.55;66.74;99539.28;5132443;27;39714;-83
2021/09/07 04:43:05;;;;;;;2.07;1.73;;;;;;;15.56;66.60;99532.97;5131511;27;42103;-83
2021/09/07 04:45:33;;;;;;;2.07;1.30;;;;;;;15.67;66.60;99543.72;5130659;27;43041;-83
2021/09/07 04:48:01;;;;;;;2.90;1.87;;;;;;;15.67;66.92;99544.56;5113999;27;41217;-83
2021/09/07 04:50:29;;;;;;;2.40;1.77;;;;;;;15.68;66.74;99551.63;5114309;27;39042;-83
2021/09/07 04:52:58;;;;;;;1.87;1.63;;;;;;;15.68;66.86;99546.28;5133123;27;41893;-83
2021/09/07 04:55:26;;;;;;;2.73;1.63;;;;;;;15.65;66.96;99541.16;5132434;27;42832;-83
2021/09/07 04:57:53;;;;;;;2.23;1.60;;;;;;;15.73;67.13;99548.59;5113979;27;41183;-84
2021/09/07 05:00:21;;;;;;;2.90;1.70;;;;;;;15.71;67.31;99540.69;5113707;27;40718;-83
2021/09/07 05:02:48;;;;;;;2.73;2.00;;;;;;;15.71;67.61;99534.50;5131100;27;42045;-83
2021/09/07 05:05:16;;;;;;;1.63;1.53;;;;;;;15.72;67.74;99531.72;5114131;27;41877;-83
2021/09/07 05:07:43;;;;;;;3.10;1.90;;;;;;;15.84;67.66;99550.50;5132370;27;42621;-83
2021/09/07 05:10:12;;;;;;;3.33;1.47;;;;;;;15.89;67.51;99553.69;5113766;27;38871;-82
2021/09/07 05:12:40;;;;;;;2.73;2.43;;;;;;;15.94;67.68;99557.75;5113596;27;40624;-83
2021/09/07 05:15:08;;;;;;;1.80;1.57;;;;;;;15.90;67.62;99545.56;5131243;27;42788;-84
2021/09/07 05:17:36;;;;;;;2.53;2.23;;;;;;;16.02;67.87;99560.69;5131605;27;42509;-83
2021/09/07 05:20:05;;;;;;;3.27;2.50;;;;;;;16.07;68.51;99568.38;5113368;27;39728;-83
2021/09/07 05:22:33;;;;;;;3.23;2.40;;;;;;;16.08;68.21;99570.91;5113783;27;41219;-83
2021/09/07 05:25:04;;;;;;;2.10;1.90;;;;;;;16.04;68.22;99560.59;5114023;27;42556;-83
2021/09/07 05:27:35;;;;;;;1.73;1.63;;;;;;;16.12;68.28;99576.91;5114441;27;42172;-83
2021/09/07 05:30:04;;;;;;;2.87;2.17;;;;;;;16.07;68.32;99563.88;5114054;27;39344;-83
2021/09/07 05:32:32;;;;;;;1.97;1.77;;;;;;;16.17;68.28;99575.59;5112928;27;42329;-83
2021/09/07 05:34:59;;;;;;;2.10;1.90;;;;;;;16.21;67.94;99575.34;5113612;27;42233;-83
2021/09/07 05:37:27;;;;;;;3.30;2.07;;;;;;;16.20;67.67;99565.63;5131217;27;42377;-84
2021/09/07 05:39:54;;;;;;;2.77;1.87;;;;;;;16.30;67.75;99575.56;5131259;27;40340;-83
2021/09/07 05:42:22;;;;;;;4.63;2.17;;;;;;;16.30;67.37;99558.66;5131274;27;41035;-83
2021/09/07 05:44:51;;;;;;;3.50;1.90;;;;;;;16.38;67.46;99556.25;5129876;27;43201;-83
2021/09/07 05:47:19;;;;;;;2.17;1.93;;;;;;;16.58;67.15;99578.78;5128749;27;41246;-83
2021/09/07 05:49:47;;;;;;;1.77;1.50;;;;;;;16.60;67.53;99568.84;5128956;27;40961;-82
2021/09/07 05:52:15;;;;;;;2.53;1.60;;;;;;;16.75;68.05;99581.94;5112257;27;41045;-83
2021/09/07 05:54:43;;;;;;;4.37;2.00;;;;;;;16.83;68.26;99584.88;5130476;27;42944;-83
2021/09/07 05:57:10;;;;;;;3.13;2.47;;;;;;;16.92;67.60;99582.47;5112189;27;41160;-83
2021/09/07 05:59:38;;;;;;;2.70;2.03;;;;;;;17.00;68.00;99577.38;5130496;27;40030;-78
2021/09/07 06:02:07;;;;;;;3.20;2.40;;;;;;;17.11;68.35;99582.75;5121078;27;40861;-82
2021/09/07 06:04:35;;;;;;;4.70;3.10;;;;;;;17.24;67.86;99578.16;5128646;27;42842;-81
2021/09/07 06:07:02;;;;;;;3.10;2.80;;;;;;;17.30;67.38;99583.03;5129536;27;42587;-82
2021/09/07 06:09:30;;;;;;;3.43;2.80;;;;;;;17.48;67.33;99581.56;5112962;27;38854;-85
2021/09/07 06:11:57;;;;;;;2.87;2.57;;;;;;;17.57;66.88;99564.75;5109499;27;40580;-83
2021/09/07 06:14:25;;;;;;;9.13;3.07;;;;;;;17.96;66.63;99597.38;5128693;27;43033;-83
2021/09/07 06:16:56;;;;;;;4.43;2.70;;;;;;;18.14;66.69;99595.91;5128728;27;42572;-77
2021/09/07 06:19:25;;;;;;;3.73;2.53;;;;;;;18.33;66.76;99595.22;5111752;27;38895;-79
2021/09/07 06:21:52;;;;;;;2.93;2.60;;;;;;;18.54;66.43;99595.28;5130026;27;41899;-77
2021/09/07 06:24:20;;;;;;;3.23;2.50;;;;;;;18.79;65.92;99589.56;5129700;27;42841;-79
2021/09/07 06:26:47;;;;;;;3.47;2.93;;;;;;;19.01;65.23;99592.16;5112284;27;42506;-79
2021/09/07 06:29:15;;;;;;;4.83;2.93;;;;;;;19.29;65.06;99592.44;5129936;27;40057;-80
2021/09/07 06:31:43;;;;;;;3.53;2.80;;;;;;;19.46;64.58;99586.44;5129389;27;41626;-86
2021/09/07 06:34:10;;;;;;;3.23;2.60;;;;;;;19.81;64.16;99593.28;5110619;27;41951;-80
2021/09/07 06:36:39;;;;;;;3.03;2.47;;;;;;;20.05;63.83;99601.84;5111360;27;41236;-82
2021/09/07 06:39:07;;;;;;;4.37;3.23;;;;;;;20.29;62.93;99604.13;5131137;27;41260;-82
2021/09/07 06:41:34;;;;;;;3.63;3.27;;;;;;;20.48;62.63;99609.59;5111153;27;40566;-85
2021/09/07 06:44:02;;;;;;;3.33;2.90;;;;;;;20.64;62.22;99601.81;5127939;27;42720;-77
2021/09/07 06:46:31;;;;;;;3.67;2.70;;;;;;;20.87;62.11;99605.06;5129657;27;42818;-77
2021/09/07 06:48:58;;;;;;;4.10;2.63;;;;;;;21.01;60.90;99604.63;5129284;27;38806;-83
2021/09/07 06:51:25;;;;;;;4.00;2.73;;;;;;;21.26;60.38;99603.22;5128859;27;42637;-81
2021/09/07 06:53:54;;;;;;;4.83;3.20;;;;;;;21.46;59.73;99612.06;5111456;27;41587;-82
2021/09/07 06:56:22;;;;;;;3.60;3.00;;;;;;;21.56;59.44;99602.09;5129149;27;42989;-80
2021/09/07 06:58:49;;;;;;;4.63;2.70;;;;;;;21.77;58.98;99607.25;5111488;27;38950;-80
2021/09/07 07:01:17;;;;;;;4.07;2.83;;;;;;;21.86;58.99;99601.84;5128698;27;41556;-79
2021/09/07 07:03:45;;;;;;;2.93;2.67;;;;;;;21.96;58.88;99603.63;5127473;27;42843;-77
2021/09/07 07:06:12;;;;;;;4.43;3.37;;;;;;;22.02;58.99;99605.75;5116815;27;41348;-79
2021/09/07 07:08:39;;;;;;;3.87;3.10;;;;;;;22.09;58.60;99613.09;5152822;27;39097;-78
2021/09/07 07:11:08;;;;;;;4.57;3.40;;;;;;;22.15;58.25;99617.03;5146023;27;41549;-81
2021/09/07 07:13:36;;;;;;;3.27;2.20;;;;;;;22.14;58.31;99612.63;5148053;27;42891;-83
2021/09/07 07:16:06;;;;;;;3.33;2.73;;;;;;;22.19;58.55;99623.84;5156201;27;42743;-84
2021/09/07 07:18:34;;;;;;;6.13;3.23;;;;;;;22.24;58.25;99626.94;5162399;27;38881;-84
2021/09/07 07:21:01;;;;;;;4.00;3.07;;;;;;;22.33;58.17;99626.03;5128970;27;40723;-81
2021/09/07 07:23:29;;;;;;;5.67;4.13;;;;;;;22.38;58.12;99636.34;5146385;27;43035;-82
2021/09/07 07:25:57;;;;;;;4.37;3.67;;;;;;;22.48;57.84;99634.47;5117299;27;41240;-82
2021/09/07 07:28:26;;;;;;;3.70;3.03;;;;;;;22.48;58.17;99619.13;5147003;27;39925;-82
2021/09/07 07:30:54;;;;;;;3.60;2.80;;;;;;;22.58;58.01;99621.75;5134255;27;42138;-79
2021/09/07 07:33:21;;;;;;;4.30;3.13;;;;;;;22.77;57.80;99635.09;5115399;27;41870;-80
2021/09/07 07:35:49;;;;;;;3.43;2.93;;;;;;;22.90;57.34;99634.72;5142410;27;42303;-78
2021/09/07 07:38:16;;;;;;;4.23;3.10;;;;;;;23.05;56.44;99637.72;5138234;27;38905;-81
2021/09/07 07:40:45;;;;;;;3.40;3.03;;;;;;;23.20;56.38;99634.31;5137549;27;40732;-83
2021/09/07 07:43:13;;;;;;;4.37;3.53;;;;;;;23.27;55.71;99621.84;5148482;27;43891;-82
2021/09/07 07:45:42;;;;;;;7.40;5.20;;;;;;;23.58;55.17;99621.41;5133135;27;42563;-83
2021/09/07 07:48:10;;;;;;;7.50;4.43;;;;;;;24.03;54.76;99633.81;5124572;27;39243;-87
2021/09/07 07:50:38;;;;;;;5.27;3.23;;;;;;;24.39;53.30;99659.69;5119925;27;40831;-85
2021/09/07 07:53:06;;;;;;;4.07;3.17;;;;;;;25.07;52.51;99667.66;5130110;27;42078;-79
2021/09/07 07:55:33;;;;;;;5.27;4.03;;;;;;;25.69;50.67;99673.41;5131823;27;42477;-80
2021/09/07 07:58:01;;;;;;;3.27;2.70;;;;;;;26.27;50.00;99666.75;5136889;27;40242;-84
2021/09/07 08:00:28;;;;;;;4.23;3.20;;;;;;;27.09;48.51;99673.44;5139791;27;41786;-80
2021/09/07 08:02:57;;;;;;;4.80;3.53;;;;;;;27.54;46.97;99653.50;5127508;27;42690;-81
2021/09/07 08:05:25;;;;;;;4.00;3.40;;;;;;;27.83;45.63;99693.53;5135732;27;43022;-79
2021/09/07 08:07:53;;;;;;;4.20;3.53;;;;;;;27.72;45.57;99692.13;5125759;27;39076;-81
2021/09/07 08:10:21;;;;;;;7.50;3.70;;;;;;;27.73;45.90;99680.22;5142295;27;42797;-85
2021/09/07 08:12:48;;;;;;;3.60;3.23;;;;;;;27.81;45.89;99684.75;5117329;27;43056;-77
2021/09/07 08:15:16;;;;;;;3.77;3.13;;;;;;;27.75;45.50;99682.75;5134159;27;42598;-82
2021/09/07 08:17:44;;;;;;;3.33;3.03;;;;;;;27.96;45.00;99699.19;5145477;27;41148;-82
2021/09/07 08:20:14;;;;;;;3.67;3.33;;;;;;;27.98;45.54;99693.56;5141187;27;41447;-82
2021/09/07 08:22:42;;;;;;;3.13;2.80;;;;;;;27.80;45.13;99683.03;5135806;27;43736;-86
2021/09/07 08:25:10;;;;;;;4.53;3.33;;;;;;;27.79;45.92;99686.78;5128646;27;41513;-84
2021/09/07 08:27:38;;;;;;;3.33;3.03;;;;;;;27.69;45.94;99692.53;5130031;27;39063;-85
2021/09/07 08:30:07;;;;;;;4.83;3.70;;;;;;;27.61;46.13;99689.00;5138780;27;40345;-85
2021/09/07 08:32:38;;;;;;;4.10;3.50;;;;;;;27.45;46.25;99674.47;5143337;27;43018;-84
2021/09/07 08:35:07;;;;;;;4.87;3.37;;;;;;;27.44;46.37;99680.13;5113787;27;41535;-86
2021/09/07 08:37:36;;;;;;;4.67;3.67;;;;;;;27.37;46.05;99663.69;5136566;27;39898;-84
2021/09/07 08:40:05;;;;;;;4.47;3.70;;;;;;;27.52;45.64;99683.63;5122689;27;41102;-84
2021/09/07 08:42:34;;;;;;;3.73;3.17;;;;;;;27.85;45.19;99696.94;5136694;27;41762;-83
2021/09/07 08:45:03;;;;;;;4.60;3.67;;;;;;;28.12;44.11;99690.00;5147805;27;43099;-85
2021/09/07 08:47:30;;;;;;;3.50;2.90;;;;;;;28.20;44.47;99696.22;5103567;27;39283;-84
2021/09/07 08:50:02;;;;;;;3.47;3.10;;;;;;;28.23;43.34;99684.94;5123799;27;42164;-85
2021/09/07 08:52:30;;;;;;;5.43;3.20;;;;;;;28.40;43.64;99693.78;5143130;27;42932;-84
2021/09/07 08:54:59;;;;;;;4.93;3.57;;;;;;;28.71;44.14;99690.78;5132304;27;40942;-84
2021/09/07 08:57:27;;;;;;;4.30;3.53;;;;;;;28.99;42.38;99701.84;5135280;27;39286;-84
2021/09/07 08:59:56;;;;;;;5.07;3.33;;;;;;;29.42;42.49;99700.00;5120492;27;41182;-82
2021/09/07 09:02:25;;;;;;;4.00;3.10;;;;;;;29.99;39.93;99726.28;5142303;27;42873;-80
2021/09/07 09:04:54;;;;;;;4.23;3.30;;;;;;;30.16;40.02;99716.75;5119187;27;42415;-80
2021/09/07 09:07:23;;;;;;;4.17;3.40;;;;;;;30.62;40.01;99716.16;5137656;27;41174;-80
2021/09/07 09:09:52;;;;;;;4.73;4.00;;;;;;;31.08;39.78;99706.19;5139285;27;41615;-85
2021/09/07 09:12:30;;;;;;;4.33;3.90;;;;;;;31.38;38.08;99712.16;5134348;27;42248;-85
2021/09/07 09:14:58;;;;;;;4.33;3.80;;;;;;;31.39;38.50;99724.81;5126358;27;41581;-85
2021/09/07 09:17:31;;;;;;;3.87;3.40;;;;;;;31.32;38.19;99712.16;5132604;27;39741;-83
2021/09/07 09:20:01;;;;;;;5.37;3.47;;;;;;;31.11;38.21;99718.66;5139063;27;41734;-86
2021/09/07 09:22:47;;;;;;;4.03;3.60;;;;;;;30.90;38.70;99714.16;5132510;27;42177;-85
2021/09/07 09:25:32;;;;;;;4.83;3.27;;;;;;;30.74;38.57;99714.53;5128780;27;41808;-79
2021/09/07 09:28:21;;;;;;;4.97;3.40;;;;;;;30.62;38.91;99699.75;5120108;27;39190;-84
2021/09/07 09:30:52;;;;;;;4.67;3.07;;;;;;;30.90;39.48;99708.69;5130677;27;41697;-81
2021/09/07 09:33:22;;;;;;;4.13;3.47;;;;;;;30.88;39.13;99712.66;5135903;27;43987;-82
2021/09/07 09:35:53;;;;;;;4.03;3.50;;;;;;;30.85;39.43;99702.97;5116743;27;41515;-85
2021/09/07 09:38:22;;;;;;;3.47;3.17;;;;;;;30.83;38.83;99710.53;5134235;27;40445;-85
2021/09/07 09:41:00;;;;;;;3.90;3.47;;;;;;;30.88;38.44;99710.78;5140331;27;41777;-83
2021/09/07 09:43:43;;;;;;;4.10;3.60;;;;;;;30.85;38.69;99713.06;5101979;27;41803;-85
2021/09/07 09:46:23;;;;;;;4.53;3.90;;;;;;;30.74;38.97;99706.31;5113341;27;42197;-82
2021/09/07 09:48:53;;;;;;;4.30;3.10;;;;;;;30.59;39.09;99706.47;5143669;27;39825;-80
2021/09/07 09:51:23;;;;;;;3.83;3.40;;;;;;;30.57;38.93;99699.50;5119594;27;41549;-80
2021/09/07 09:53:51;;;;;;;5.63;3.73;;;;;;;30.51;38.91;99703.03;5131647;27;41780;-82
2021/09/07 09:56:19;;;;;;;4.83;3.60;;;;;;;30.50;39.67;99690.41;5137665;27;41575;-83
2021/09/07 09:58:50;;;;;;;4.00;3.30;;;;;;;30.46;38.75;99689.13;5112700;27;39847;-83
2021/09/07 10:01:19;;;;;;;4.13;3.47;;;;;;;30.55;39.30;99679.72;5096653;27;40793;-84
2021/09/07 10:03:49;;;;;;;4.90;4.40;;;;;;;30.61;37.44;99698.06;5138830;27;43272;-82
2021/09/07 10:06:18;;;;;;;5.67;4.37;;;;;;;30.67;38.40;99698.06;5132437;27;42404;-82
2021/09/07 10:08:45;;;;;;;5.00;4.00;;;;;;;30.62;37.17;99706.06;5136745;27;40689;-81
2021/09/07 10:11:16;;;;;;;4.13;3.63;;;;;;;30.55;37.54;99685.19;5137093;27;41384;-82
2021/09/07 10:13:48;;;;;;;6.17;3.80;;;;;;;30.71;38.08;99679.38;5132620;27;42656;-83
2021/09/07 10:16:32;;;;;;;3.87;3.50;;;;;;;31.10;37.57;99686.03;5115845;27;42037;-84
2021/09/07 10:19:07;;;;;;;3.40;3.10;;;;;;;31.78;36.91;99696.59;5119008;27;38948;-86
2021/09/07 10:24:57;;;;;;;5.10;3.30;;;;;;;32.35;36.04;99697.78;5131028;27;42837;-85
2021/09/07 10:27:57;;;;;;;4.93;3.97;;;;;;;32.58;35.53;99704.66;5097152;27;42549;-85
2021/09/07 10:31:01;;;;;;;4.07;3.23;;;;;;;32.95;35.51;99686.53;5112976;27;39069;-85
2021/09/07 10:33:32;;;;;;;3.97;3.57;;;;;;;33.15;34.32;99710.06;5096328;27;41555;-83
2021/09/07 10:36:13;;;;;;;3.60;3.30;;;;;;;33.33;33.11;99703.84;5135158;27;20237;-85
2021/09/07 10:38:45;;;;;;;3.10;2.80;;;;;;;33.63;33.50;99703.19;5126146;27;41269;-85
2021/09/07 10:41:44;;;;;;;3.70;3.27;;;;;;;33.93;32.80;99697.88;5142221;27;39761;-83
2021/09/07 10:44:26;;;;;;;3.80;3.40;;;;;;;34.32;32.41;99694.72;5111469;27;40682;-81
2021/09/07 10:47:03;;;;;;;4.07;3.67;;;;;;;34.71;31.53;99693.38;5115971;27;41800;-86
2021/09/07 10:49:46;;;;;;;4.70;3.50;;;;;;;34.95;30.75;99694.34;5113192;27;41368;-84
2021/09/07 10:52:20;;;;;;;3.77;3.20;;;;;;;34.92;30.21;99692.06;5137291;27;40101;-86
2021/09/07 10:54:50;;;;;;;3.83;3.47;;;;;;;35.00;30.76;99694.47;5112725;27;41076;-82
2021/09/07 10:57:52;;;;;;;4.10;3.63;;;;;;;34.96;30.58;99701.53;5094947;27;42185;-82
2021/09/07 11:00:31;;;;;;;3.63;3.33;;;;;;;34.85;31.53;99688.56;5133159;27;42966;-84
2021/09/07 11:03:00;;;;;;;3.60;3.20;;;;;;;34.97;30.83;99689.47;5141284;27;39072;-84
2021/09/07 11:05:47;;;;;;;3.70;3.30;;;;;;;35.28;30.46;99697.47;5111920;27;41433;-86
2021/09/07 11:08:20;;;;;;;3.90;3.43;;;;;;;35.51;29.98;99682.06;5116340;27;43123;-86
2021/09/07 11:10:50;;;;;;;3.23;2.93;;;;;;;35.99;30.26;99685.47;5141192;27;41654;-85
2021/09/07 11:13:23;;;;;;;3.83;3.53;;;;;;;36.40;30.01;99674.53;5115430;27;38926;-85
2021/09/07 11:15:53;;;;;;;3.47;3.13;;;;;;;36.45;29.04;99683.75;5116615;27;40666;-86
2021/09/07 11:18:26;;;;;;;4.00;3.60;;;;;;;36.34;27.75;99692.91;5135034;27;43567;-85
2021/09/07 11:20:57;;;;;;;3.53;3.23;;;;;;;36.69;27.48;99692.81;5114079;27;42522;-82
2021/09/07 11:23:27;;;;;;;3.67;3.10;;;;;;;37.27;27.53;99692.56;5124291;27;39110;-83
2021/09/07 11:26:00;;;;;;;3.60;3.30;;;;;;;37.83;26.62;99676.13;5135354;27;42584;-79
2021/09/07 11:28:29;;;;;;;3.20;2.90;;;;;;;38.37;26.18;99691.00;5121234;27;42925;-81
2021/09/07 11:30:56;;;;;;;3.30;3.00;;;;;;;38.53;25.74;99697.56;5135627;27;42422;-82
2021/09/07 11:33:27;;;;;;;3.43;3.13;;;;;;;38.47;24.89;99682.81;5145311;27;40763;-83
2021/09/07 11:35:58;;;;;;;3.63;3.13;;;;;;;38.84;25.81;99673.88;5120909;27;41002;-82
2021/09/07 11:38:28;;;;;;;3.10;2.83;;;;;;;39.71;25.15;99690.25;5120417;27;41780;-82
2021/09/07 11:40:59;;;;;;;3.45;3.15;;;;;;;40.40;24.12;99693.81;5141171;27;43021;-82
2021/09/07 11:43:29;;;;;;;2.90;2.70;;;;;;;40.79;23.31;99691.47;5109734;28;40069;-86
2021/09/07 11:46:09;;;;;;;2.80;2.60;;;;;;;41.35;22.40;99708.28;5112155;27;40904;-84
2021/09/07 11:48:38;;;;;;;3.35;3.05;;;;;;;41.83;22.57;99703.28;5120038;27;41837;-84